Time;durP1;ratioP1;P1;durP2;ratioP2;P2;SDS_P1;SDS_P2;PMS_P1;PMS_P2;Temp;Humidity;BMP_temperature;BMP_pressure;BME280_temperature;BME280_humidity;BME280_pressure;Samples;Min_cycle;Max_cycle;Signal;HPM_P1;HPM_P2
2021/06/10 00:00:53;;;;;;;13.32;12.00;;;;;;;12.95;76.84;96338.38;3578033;40;20040;-55
2021/06/10 00:03:21;;;;;;;13.45;12.15;;;;;;;12.91;76.51;96333.59;3580803;40;20048;-56
2021/06/10 00:05:48;;;;;;;14.02;12.63;;;;;;;12.91;76.91;96338.13;3582303;40;20063;-56
2021/06/10 00:08:16;;;;;;;13.80;12.27;;;;;;;12.89;77.38;96334.94;3578018;40;20050;-56
2021/06/10 00:10:45;;;;;;;14.18;12.45;;;;;;;12.83;77.11;96336.75;3579115;40;21781;-56
2021/06/10 00:13:16;;;;;;;13.20;11.68;;;;;;;12.84;76.71;96338.34;3568190;40;20594;-56
2021/06/10 00:15:44;;;;;;;14.07;12.73;;;;;;;12.82;77.02;96340.47;3572088;40;20048;-56
2021/06/10 00:18:12;;;;;;;13.98;12.43;;;;;;;12.87;76.81;96343.13;3568156;40;20044;-56
2021/06/10 00:20:40;;;;;;;14.35;12.82;;;;;;;12.92;77.20;96343.13;3579156;40;20526;-56
2021/06/10 00:23:09;;;;;;;16.35;12.98;;;;;;;12.94;77.42;96339.44;3581548;40;20339;-56
2021/06/10 00:25:37;;;;;;;15.05;13.32;;;;;;;12.80;76.48;96345.22;3582025;40;20427;-57
2021/06/10 00:28:05;;;;;;;13.13;11.77;;;;;;;12.76;77.05;96346.78;3578614;40;20430;-59
2021/06/10 00:30:34;;;;;;;14.93;12.93;;;;;;;12.70;77.47;96343.31;3580033;40;20070;-54
2021/06/10 00:33:04;;;;;;;15.00;13.60;;;;;;;12.72;76.74;96348.38;3579346;40;20394;-56
2021/06/10 00:35:33;;;;;;;14.43;13.00;;;;;;;12.69;78.17;96341.72;3580510;40;20044;-57
2021/06/10 00:38:01;;;;;;;14.85;13.30;;;;;;;12.66;77.91;96352.03;3569094;40;20058;-56
2021/06/10 00:40:31;;;;;;;15.65;14.07;;;;;;;12.62;77.58;96338.53;3578319;40;20079;-55
2021/06/10 00:42:59;;;;;;;15.30;13.70;;;;;;;12.60;77.78;96345.91;3589833;39;20054;-55
2021/06/10 00:45:28;;;;;;;17.25;13.10;;;;;;;12.53;77.38;96345.38;3570989;40;20056;-55
2021/06/10 00:47:56;;;;;;;15.23;13.68;;;;;;;12.43;77.36;96354.03;3580574;40;20052;-55
2021/06/10 00:50:32;;;;;;;15.43;13.75;;;;;;;12.41;78.73;96356.94;3571694;40;20050;-56
2021/06/10 00:53:00;;;;;;;15.32;13.85;;;;;;;12.40;78.43;96352.72;3579662;40;20048;-55
2021/06/10 00:55:28;;;;;;;16.77;13.73;;;;;;;12.35;78.68;96357.19;3580288;40;20039;-55
2021/06/10 00:57:55;;;;;;;15.27;13.88;;;;;;;12.27;78.75;96351.31;3576581;40;20738;-55
2021/06/10 01:00:23;;;;;;;16.70;15.13;;;;;;;12.27;78.95;96353.16;3569706;40;20340;-55
2021/06/10 01:02:52;;;;;;;15.57;14.13;;;;;;;12.21;79.20;96349.69;3581129;40;20053;-56
2021/06/10 01:05:20;;;;;;;18.48;14.07;;;;;;;12.12;79.56;96338.00;3576568;40;20421;-55
2021/06/10 01:08:13;;;;;;;16.13;14.43;;;;;;;12.15;79.56;96348.06;3583736;40;20480;-55
2021/06/10 01:10:47;;;;;;;15.43;13.82;;;;;;;12.07;79.72;96343.25;3579616;40;20048;-55
2021/06/10 01:13:43;;;;;;;16.80;15.00;;;;;;;11.99;80.05;96342.69;3580074;40;20052;-55
2021/06/10 01:16:15;;;;;;;16.17;14.68;;;;;;;12.00;80.46;96340.81;3584064;39;20052;-55
2021/06/10 01:18:43;;;;;;;20.92;15.88;;;;;;;11.94;80.86;96342.59;3581059;40;20045;-55
2021/06/10 01:21:11;;;;;;;17.63;15.95;;;;;;;11.85;80.16;96334.34;3580809;40;20312;-55
2021/06/10 01:23:57;;;;;;;16.42;14.85;;;;;;;11.87;80.33;96336.75;3580938;40;20393;-63
2021/06/10 01:26:51;;;;;;;16.33;14.63;;;;;;;11.84;80.30;96330.09;3582159;40;20053;-55
2021/06/10 01:29:21;;;;;;;16.40;14.90;;;;;;;11.80;79.93;96322.94;3585573;39;20044;-55
2021/06/10 01:31:50;;;;;;;17.77;15.57;;;;;;;11.79;80.45;96318.69;3580295;40;20286;-55
2021/06/10 01:34:19;;;;;;;17.95;14.95;;;;;;;11.79;80.67;96326.63;3576637;40;20065;-56
2021/06/10 01:36:47;;;;;;;18.40;16.60;;;;;;;11.76;80.89;96327.94;3579331;40;20049;-55
2021/06/10 01:39:19;;;;;;;17.45;15.65;;;;;;;11.72;81.13;96320.75;3581698;40;20048;-55
2021/06/10 01:41:47;;;;;;;17.77;15.95;;;;;;;11.73;80.61;96322.38;3581612;40;20056;-55
2021/06/10 01:44:16;;;;;;;17.73;15.02;;;;;;;11.66;80.07;96326.00;3581912;40;20045;-56
2021/06/10 01:46:43;;;;;;;18.88;16.85;;;;;;;11.58;81.27;96323.81;3579595;40;20065;-55
2021/06/10 01:49:15;;;;;;;17.80;16.00;;;;;;;11.50;81.51;96319.78;3582559;40;20054;-55
2021/06/10 01:51:45;;;;;;;20.67;16.92;;;;;;;11.51;81.73;96324.03;3581431;40;20059;-55
2021/06/10 01:54:16;;;;;;;19.30;16.90;;;;;;;11.50;81.23;96317.16;3571813;40;20054;-55
2021/06/10 01:56:45;;;;;;;17.38;15.68;;;;;;;11.45;80.83;96313.66;3573296;40;20110;-55
2021/06/10 01:59:16;;;;;;;17.45;15.63;;;;;;;11.39;81.35;96313.63;3577920;40;20048;-54
2021/06/10 02:01:45;;;;;;;21.33;17.58;;;;;;;11.38;81.69;96319.94;3580327;40;20059;-56
2021/06/10 02:04:13;;;;;;;22.30;16.85;;;;;;;11.32;82.15;96320.97;3587810;40;20055;-55
2021/06/10 02:06:41;;;;;;;20.48;18.33;;;;;;;11.32;82.14;96326.25;3582070;40;20062;-55
2021/06/10 02:09:11;;;;;;;19.23;17.48;;;;;;;11.28;82.60;96327.78;3583235;40;20066;-54
2021/06/10 02:11:40;;;;;;;20.15;17.00;;;;;;;11.25;82.60;96328.28;3581842;40;20056;-55
2021/06/10 02:14:09;;;;;;;17.85;15.63;;;;;;;11.18;81.74;96325.03;3584038;40;20138;-61
2021/06/10 02:16:40;;;;;;;21.05;18.83;;;;;;;11.17;82.29;96320.81;3580426;40;20049;-55
2021/06/10 02:19:08;;;;;;;17.80;15.02;;;;;;;11.07;82.56;96319.66;3582566;40;20485;-55
2021/06/10 02:21:37;;;;;;;19.30;17.33;;;;;;;11.10;83.18;96322.84;3580335;40;20068;-57
2021/06/10 02:24:05;;;;;;;17.85;16.00;;;;;;;11.09;83.28;96322.03;3588432;39;20032;-56
2021/06/10 02:26:33;;;;;;;20.30;16.98;;;;;;;11.05;82.62;96321.75;3582070;40;20053;-54
2021/06/10 02:29:00;;;;;;;20.38;17.80;;;;;;;11.04;83.09;96320.16;3582632;40;20040;-55
2021/06/10 02:31:28;;;;;;;20.30;17.58;;;;;;;11.01;83.20;96330.41;3579522;40;20185;-55
2021/06/10 02:33:56;;;;;;;20.73;18.05;;;;;;;11.01;82.96;96323.31;3578010;40;20050;-55
2021/06/10 02:36:24;;;;;;;19.67;17.52;;;;;;;11.03;83.09;96326.47;3571596;40;20517;-55
2021/06/10 02:39:00;;;;;;;20.67;16.50;;;;;;;11.02;82.75;96332.78;3582778;40;20893;-56
2021/06/10 02:41:29;;;;;;;17.95;16.15;;;;;;;10.95;82.86;96332.19;3577719;40;20040;-55
2021/06/10 02:44:00;;;;;;;21.70;19.17;;;;;;;10.95;83.41;96332.19;3581092;40;20061;-55
2021/06/10 02:46:29;;;;;;;21.00;17.80;;;;;;;10.95;83.37;96334.06;3581108;40;20056;-55
2021/06/10 02:48:58;;;;;;;19.00;16.90;;;;;;;10.85;82.79;96335.53;3580995;40;20052;-55
2021/06/10 02:51:33;;;;;;;18.95;16.60;;;;;;;10.83;83.64;96328.91;3570444;40;20058;-55
2021/06/10 02:54:04;;;;;;;19.85;16.38;;;;;;;10.84;83.46;96330.50;3579616;39;20379;-55
2021/06/10 02:56:35;;;;;;;18.50;16.65;;;;;;;10.87;83.04;96327.38;3589328;39;20124;-56
2021/06/10 02:59:04;;;;;;;18.70;16.80;;;;;;;10.87;83.32;96330.00;3580508;39;20308;-55
2021/06/10 03:01:36;;;;;;;17.63;15.95;;;;;;;10.89;83.27;96333.22;3587386;39;20062;-55
2021/06/10 03:04:08;;;;;;;18.42;16.60;;;;;;;10.86;83.16;96323.91;3570612;39;20160;-56
2021/06/10 03:06:36;;;;;;;19.40;14.95;;;;;;;10.86;82.74;96331.84;3580682;40;20062;-55
2021/06/10 03:09:05;;;;;;;17.45;15.07;;;;;;;10.87;83.23;96333.44;3573217;40;20066;-55
2021/06/10 03:11:37;;;;;;;19.73;15.68;;;;;;;10.90;82.85;96332.13;3590926;39;20029;-55
2021/06/10 03:14:07;;;;;;;16.98;15.27;;;;;;;10.95;83.15;96348.03;3593592;40;20060;-55
2021/06/10 03:16:36;;;;;;;20.05;16.88;;;;;;;11.02;82.42;96343.34;3575584;39;20401;-55
2021/06/10 03:19:05;;;;;;;19.20;16.25;;;;;;;11.07;82.60;96335.50;3565077;40;20040;-55
2021/06/10 03:21:33;;;;;;;15.65;14.15;;;;;;;11.13;81.82;96335.56;3576490;39;20347;-56
2021/06/10 03:24:01;;;;;;;15.95;14.35;;;;;;;11.11;81.98;96342.94;3588114;39;20037;-54
2021/06/10 03:26:31;;;;;;;17.05;15.38;;;;;;;11.18;82.46;96340.88;3590136;39;20048;-54
2021/06/10 03:28:59;;;;;;;21.63;17.02;;;;;;;11.19;82.22;96348.56;3596339;39;20032;-56
2021/06/10 03:31:27;;;;;;;15.98;14.35;;;;;;;11.45;82.18;96348.81;3590462;39;20054;-54
2021/06/10 03:33:57;;;;;;;17.63;15.93;;;;;;;11.89;80.26;96349.69;3591188;39;20047;-56
2021/06/10 03:36:25;;;;;;;18.67;16.55;;;;;;;12.48;78.86;96346.16;3579928;39;20054;-54
2021/06/10 03:38:54;;;;;;;18.20;16.10;;;;;;;12.88;78.56;96350.00;3581129;40;20044;-54
2021/06/10 03:41:27;;;;;;;19.30;15.48;;;;;;;12.91;78.78;96357.44;3563071;40;20056;-55
2021/06/10 03:43:57;;;;;;;16.45;14.70;;;;;;;13.06;76.76;96356.69;3591159;39;20060;-55
2021/06/10 03:46:24;;;;;;;17.17;14.02;;;;;;;13.08;75.89;96364.38;3576987;39;20048;-55
2021/06/10 03:48:52;;;;;;;16.50;14.80;;;;;;;13.26;75.25;96360.47;3591854;39;20052;-55
2021/06/10 03:51:21;;;;;;;17.23;14.90;;;;;;;13.55;75.20;96353.91;3587774;39;20044;-55
2021/06/10 03:53:52;;;;;;;16.60;14.95;;;;;;;14.07;73.22;96355.50;3580311;40;20052;-56
2021/06/10 03:56:20;;;;;;;19.25;15.20;;;;;;;14.51;72.78;96346.13;3572450;39;20129;-55
2021/06/10 03:58:48;;;;;;;16.48;13.30;;;;;;;15.21;69.41;96352.50;3579380;40;20060;-55
2021/06/10 04:01:15;;;;;;;13.90;11.63;;;;;;;16.47;66.96;96352.06;3572047;39;20313;-55
2021/06/10 04:03:43;;;;;;;13.55;12.15;;;;;;;17.40;60.17;96356.28;3572785;39;20519;-55
2021/06/10 04:06:12;;;;;;;15.15;12.23;;;;;;;17.96;60.80;96354.63;3591867;39;20327;-56
2021/06/10 04:08:40;;;;;;;12.63;11.27;;;;;;;18.47;59.70;96359.41;3582295;39;20056;-56
2021/06/10 04:11:08;;;;;;;10.63;9.55;;;;;;;19.42;57.90;96358.84;3579718;39;20061;-55
2021/06/10 04:13:36;;;;;;;14.98;13.25;;;;;;;20.11;53.84;96357.00;3580031;40;20044;-56
2021/06/10 04:16:04;;;;;;;11.75;10.55;;;;;;;20.60;52.76;96359.75;3587585;39;20062;-55
2021/06/10 04:18:32;;;;;;;11.30;10.23;;;;;;;20.92;51.28;96351.66;3590969;39;20062;-56
2021/06/10 04:21:00;;;;;;;10.18;9.23;;;;;;;21.82;49.41;96361.06;3581095;40;20044;-56
2021/06/10 04:23:28;;;;;;;11.52;9.65;;;;;;;22.39;46.17;96354.63;3588677;39;20054;-56
2021/06/10 04:25:56;;;;;;;10.80;9.68;;;;;;;22.62;47.65;96353.63;3589386;39;20297;-56
2021/06/10 04:28:23;;;;;;;10.88;9.05;;;;;;;23.38;44.85;96346.56;3588075;39;20058;-56
2021/06/10 04:30:51;;;;;;;10.02;8.98;;;;;;;23.80;44.04;96356.53;3576901;39;20051;-56
2021/06/10 04:33:19;;;;;;;9.35;8.18;;;;;;;23.49;44.16;96355.84;3581146;39;20051;-56
2021/06/10 04:35:46;;;;;;;9.93;8.90;;;;;;;23.27;43.07;96350.75;3588679;39;20543;-56
2021/06/10 04:38:15;;;;;;;11.27;8.35;;;;;;;23.25;44.20;96353.00;3579743;39;20054;-56
2021/06/10 04:40:42;;;;;;;11.85;9.15;;;;;;;23.62;42.29;96356.66;3587438;39;20055;-56
2021/06/10 04:43:10;;;;;;;10.50;8.73;;;;;;;23.69;42.17;96355.38;3586345;39;20695;-55
2021/06/10 04:45:38;;;;;;;17.58;15.55;;;;;;;23.65;42.52;96352.53;3588403;39;20533;-55
2021/06/10 04:48:06;;;;;;;13.75;12.45;;;;;;;23.58;42.97;96350.34;3580107;40;20052;-55
2021/06/10 04:50:35;;;;;;;11.18;8.52;;;;;;;23.17;43.34;96358.06;3582146;40;20062;-56
2021/06/10 04:53:03;;;;;;;14.10;12.80;;;;;;;23.20;42.64;96351.28;3573397;40;20062;-56
2021/06/10 04:55:31;;;;;;;10.90;8.95;;;;;;;23.02;43.34;96345.97;3580649;39;20041;-54
2021/06/10 04:58:00;;;;;;;10.10;9.20;;;;;;;22.47;44.98;96346.88;3592611;39;20055;-54
2021/06/10 05:00:28;;;;;;;9.93;8.25;;;;;;;22.58;43.64;96348.13;3582041;40;20056;-55
2021/06/10 05:02:55;;;;;;;9.73;8.73;;;;;;;23.08;43.83;96335.81;3575807;39;20245;-55
2021/06/10 05:05:24;;;;;;;16.27;10.07;;;;;;;23.73;42.40;96345.47;3591398;39;20048;-55
2021/06/10 05:07:51;;;;;;;15.40;9.45;;;;;;;23.97;41.00;96339.44;3592850;39;20062;-55
2021/06/10 05:10:20;;;;;;;14.63;11.65;;;;;;;23.65;42.77;96339.84;3580128;40;20054;-57
2021/06/10 05:12:48;;;;;;;15.50;11.80;;;;;;;23.94;41.78;96342.75;3590664;40;20164;-56
2021/06/10 05:15:15;;;;;;;11.38;10.20;;;;;;;23.32;42.03;96337.88;3590240;39;20064;-55
2021/06/10 05:17:43;;;;;;;13.07;9.80;;;;;;;22.35;45.00;96331.41;3589706;39;20324;-57
2021/06/10 05:20:12;;;;;;;20.20;13.73;;;;;;;21.85;45.51;96346.22;3590757;39;20435;-56
2021/06/10 05:22:39;;;;;;;13.90;12.43;;;;;;;21.21;47.91;96343.03;3572687;40;20046;-57
2021/06/10 05:25:08;;;;;;;17.85;13.40;;;;;;;20.65;49.31;96343.53;3589248;39;20058;-57
2021/06/10 05:27:36;;;;;;;19.48;13.88;;;;;;;20.23;50.65;96338.47;3584212;39;20051;-56
2021/06/10 05:30:06;;;;;;;13.35;11.95;;;;;;;20.04;50.41;96332.53;3581096;39;20782;-56
2021/06/10 05:32:34;;;;;;;12.10;10.40;;;;;;;20.05;50.11;96331.44;3579426;39;20839;-56
2021/06/10 05:35:03;;;;;;;12.02;10.77;;;;;;;20.01;50.47;96336.63;3583400;39;20058;-57
2021/06/10 05:37:30;;;;;;;13.13;11.75;;;;;;;19.70;51.97;96341.91;3592433;39;20051;-55
2021/06/10 05:39:58;;;;;;;10.82;8.85;;;;;;;19.63;51.88;96332.38;3581509;39;20062;-55
2021/06/10 05:42:26;;;;;;;10.80;9.68;;;;;;;19.67;52.19;96328.03;3592074;39;20056;-55
2021/06/10 05:44:53;;;;;;;11.55;10.27;;;;;;;19.58;53.32;96327.16;3588230;39;20047;-56
2021/06/10 05:47:21;;;;;;;9.52;8.63;;;;;;;19.40;52.62;96322.75;3591403;39;20303;-55
2021/06/10 05:49:49;;;;;;;12.38;10.32;;;;;;;19.15;53.86;96320.38;3591184;40;20392;-55
2021/06/10 05:52:16;;;;;;;9.85;8.60;;;;;;;18.99;54.15;96314.56;3591781;39;20047;-57
2021/06/10 05:54:44;;;;;;;10.65;9.65;;;;;;;18.94;54.24;96317.34;3585152;39;20051;-55
2021/06/10 05:57:12;;;;;;;10.23;9.13;;;;;;;18.75;54.35;96317.44;3586915;39;20052;-55
2021/06/10 05:59:40;;;;;;;10.32;8.95;;;;;;;18.84;55.04;96318.31;3590838;39;20054;-56
2021/06/10 06:02:07;;;;;;;10.27;8.50;;;;;;;18.89;54.96;96314.75;3593214;39;20062;-57
2021/06/10 06:04:35;;;;;;;10.68;8.48;;;;;;;18.96;54.71;96323.19;3592299;39;20064;-56
2021/06/10 06:07:03;;;;;;;9.55;8.57;;;;;;;18.97;55.01;96326.63;3581668;40;20447;-55
2021/06/10 06:09:30;;;;;;;9.48;8.45;;;;;;;19.24;55.31;96323.13;3572640;39;20060;-56
2021/06/10 06:11:58;;;;;;;8.65;7.78;;;;;;;19.35;54.67;96327.16;3587439;39;20158;-55
2021/06/10 06:14:28;;;;;;;9.20;7.28;;;;;;;19.30;54.54;96321.13;3578070;40;20054;-56
2021/06/10 06:16:57;;;;;;;8.63;7.25;;;;;;;19.27;54.15;96319.06;3572490;40;20048;-58
2021/06/10 06:19:25;;;;;;;10.70;7.75;;;;;;;19.30;53.97;96319.25;3588844;39;20366;-55
2021/06/10 06:21:53;;;;;;;9.10;8.13;;;;;;;19.51;53.20;96318.75;3589637;39;20064;-55
2021/06/10 06:24:20;;;;;;;7.80;6.60;;;;;;;19.58;52.23;96315.66;3590185;39;20032;-55
2021/06/10 06:26:48;;;;;;;11.25;6.63;;;;;;;19.60;51.71;96313.47;3590551;39;20051;-55
2021/06/10 06:29:16;;;;;;;6.35;5.15;;;;;;;19.57;51.08;96327.50;3590812;39;20046;-55
2021/06/10 06:31:44;;;;;;;5.35;4.28;;;;;;;19.62;47.70;96322.81;3582374;39;20093;-55
2021/06/10 06:34:11;;;;;;;4.32;3.92;;;;;;;19.61;48.46;96325.75;3579961;39;20305;-55
2021/06/10 06:36:39;;;;;;;6.75;3.95;;;;;;;19.60;45.69;96326.84;3580412;39;20079;-55
2021/06/10 06:39:07;;;;;;;4.35;3.45;;;;;;;19.77;44.92;96323.50;3590603;39;20324;-55
2021/06/10 06:41:35;;;;;;;4.32;3.97;;;;;;;19.59;44.87;96331.44;3569032;40;20032;-55
2021/06/10 06:44:06;;;;;;;3.60;3.00;;;;;;;19.59;45.99;96325.28;3580100;39;20040;-55
2021/06/10 06:46:34;;;;;;;8.75;3.33;;;;;;;19.58;45.34;96327.16;3580196;40;20415;-55
2021/06/10 06:49:03;;;;;;;3.83;3.17;;;;;;;19.76;44.56;96327.28;3590779;39;20044;-54
2021/06/10 06:51:32;;;;;;;3.13;2.90;;;;;;;19.74;43.58;96329.50;3590164;39;20071;-54
2021/06/10 06:54:00;;;;;;;4.75;2.63;;;;;;;19.53;43.31;96335.31;3583700;39;20051;-55
2021/06/10 06:56:28;;;;;;;4.10;3.03;;;;;;;19.45;43.82;96338.72;3570297;39;20542;-54
2021/06/10 06:58:57;;;;;;;3.15;2.88;;;;;;;19.46;43.27;96332.28;3591254;39;20060;-55
2021/06/10 07:01:24;;;;;;;4.70;3.15;;;;;;;19.54;43.50;96339.56;3576428;39;20039;-55
2021/06/10 07:03:52;;;;;;;4.97;3.42;;;;;;;19.72;43.77;96350.41;3577659;39;20075;-54
2021/06/10 07:06:20;;;;;;;2.33;2.13;;;;;;;19.51;42.09;96337.50;3578310;39;20052;-56
2021/06/10 07:08:47;;;;;;;5.32;3.45;;;;;;;19.56;43.23;96337.38;3589752;39;20051;-56
2021/06/10 07:11:35;;;;;;;5.13;3.13;;;;;;;19.60;43.53;96337.56;3585709;39;20052;-56
2021/06/10 07:14:03;;;;;;;5.13;3.10;;;;;;;19.62;43.40;96338.84;3591024;39;20054;-55
2021/06/10 07:16:31;;;;;;;5.72;3.08;;;;;;;19.70;41.47;96347.25;3579957;40;20824;-55
2021/06/10 07:18:59;;;;;;;6.00;3.40;;;;;;;19.86;42.13;96345.81;3579305;39;20062;-55
2021/06/10 07:21:40;;;;;;;3.78;2.95;;;;;;;20.04;41.68;96337.88;3591011;39;20682;-55
2021/06/10 07:24:08;;;;;;;8.55;3.10;;;;;;;20.23;41.25;96340.34;3591715;39;20066;-56
2021/06/10 07:26:36;;;;;;;3.45;3.15;;;;;;;20.43;42.25;96333.66;3571621;40;20066;-56
2021/06/10 07:29:03;;;;;;;5.82;2.65;;;;;;;20.51;40.11;96337.47;3591893;39;20062;-55
2021/06/10 07:31:32;;;;;;;2.85;2.65;;;;;;;20.57;39.55;96346.94;3589948;39;20056;-56
2021/06/10 07:34:02;;;;;;;6.88;3.15;;;;;;;20.79;40.70;96338.06;3571616;39;20065;-56
2021/06/10 07:36:30;;;;;;;4.63;2.80;;;;;;;20.94;39.77;96333.38;3590129;39;20055;-55
2021/06/10 07:38:59;;;;;;;3.75;3.05;;;;;;;20.82;39.52;96336.66;3591520;39;20052;-55
2021/06/10 07:41:28;;;;;;;3.17;2.83;;;;;;;20.80;39.73;96342.34;3580948;40;20078;-56
2021/06/10 07:43:56;;;;;;;2.75;2.13;;;;;;;20.96;38.46;96342.69;3591888;39;20344;-56
2021/06/10 07:46:23;;;;;;;5.40;2.83;;;;;;;20.92;38.72;96341.75;3592312;39;20048;-56
2021/06/10 07:48:51;;;;;;;3.22;2.70;;;;;;;21.12;38.49;96340.34;3583794;40;20430;-56
2021/06/10 07:51:19;;;;;;;6.35;3.17;;;;;;;21.24;38.32;96331.69;3583366;40;20052;-55
2021/06/10 07:53:47;;;;;;;3.53;2.53;;;;;;;21.36;38.29;96336.41;3581052;39;20048;-55
2021/06/10 07:56:14;;;;;;;6.38;3.75;;;;;;;21.31;37.90;96333.91;3578521;39;20648;-55
2021/06/10 07:58:42;;;;;;;3.35;2.33;;;;;;;21.49;37.63;96340.84;3579345;39;20412;-55
2021/06/10 08:01:10;;;;;;;2.72;2.53;;;;;;;21.49;37.04;96343.53;3592345;39;20056;-56
2021/06/10 08:03:37;;;;;;;5.80;2.75;;;;;;;21.30;35.70;96343.06;3579648;40;20102;-55
2021/06/10 08:06:06;;;;;;;2.25;2.10;;;;;;;21.65;36.58;96329.66;3591400;40;20596;-55
2021/06/10 08:08:34;;;;;;;4.07;2.78;;;;;;;21.92;35.57;96343.84;3590808;40;20058;-55
2021/06/10 08:11:06;;;;;;;4.03;2.85;;;;;;;21.64;36.41;96336.94;3581969;39;20056;-58
2021/06/10 08:13:34;;;;;;;3.67;2.60;;;;;;;21.35;36.04;96341.00;3592599;40;20808;-56
2021/06/10 08:16:03;;;;;;;4.53;2.88;;;;;;;21.31;36.07;96337.38;3582588;40;20052;-57
2021/06/10 08:18:31;;;;;;;4.68;2.50;;;;;;;21.27;36.31;96330.25;3592170;39;20887;-55
2021/06/10 08:21:00;;;;;;;7.05;2.70;;;;;;;21.46;37.04;96341.50;3582249;40;20487;-54
2021/06/10 08:23:28;;;;;;;3.15;2.50;;;;;;;21.36;36.89;96333.72;3579594;40;20056;-55
2021/06/10 08:25:59;;;;;;;2.38;2.28;;;;;;;21.23;36.13;96332.78;3591514;39;20048;-57
2021/06/10 08:28:32;;;;;;;2.65;2.03;;;;;;;21.04;36.40;96341.94;3590094;39;20144;-57
2021/06/10 08:30:59;;;;;;;5.30;2.70;;;;;;;21.10;35.96;96339.09;3580510;39;20052;-57
2021/06/10 08:33:27;;;;;;;2.30;2.10;;;;;;;21.07;35.83;96335.16;3591999;39;20052;-55
2021/06/10 08:35:56;;;;;;;9.25;2.97;;;;;;;20.76;36.87;96332.56;3578091;39;20056;-55
2021/06/10 08:38:24;;;;;;;4.85;2.40;;;;;;;20.67;37.27;96325.25;3580890;39;20566;-55
2021/06/10 08:40:52;;;;;;;5.30;3.15;;;;;;;21.11;37.47;96330.72;3592580;39;20081;-55
2021/06/10 08:43:20;;;;;;;3.15;2.45;;;;;;;21.37;36.91;96327.25;3583324;40;20054;-55
2021/06/10 08:46:00;;;;;;;3.83;2.80;;;;;;;21.25;36.96;96330.59;3593656;39;20308;-55
2021/06/10 08:48:36;;;;;;;3.58;2.40;;;;;;;21.30;36.62;96338.47;3593961;40;20066;-55
2021/06/10 08:51:06;;;;;;;4.50;3.05;;;;;;;21.60;36.15;96327.16;3584235;39;20071;-55
2021/06/10 08:53:33;;;;;;;7.30;2.75;;;;;;;21.75;36.56;96326.66;3584488;40;20040;-57
2021/06/10 08:56:03;;;;;;;3.65;2.80;;;;;;;21.88;35.82;96321.41;3593709;39;20052;-57
2021/06/10 08:58:31;;;;;;;3.08;2.67;;;;;;;22.09;36.01;96321.53;3593877;39;20048;-56
2021/06/10 09:01:00;;;;;;;5.88;3.25;;;;;;;22.43;36.29;96314.47;3593263;40;20320;-55
2021/06/10 09:03:32;;;;;;;2.40;2.20;;;;;;;22.34;35.34;96322.53;3583900;40;20055;-56
2021/06/10 09:06:08;;;;;;;3.83;2.72;;;;;;;22.53;35.55;96322.19;3580461;40;20419;-56
2021/06/10 09:08:39;;;;;;;2.85;2.40;;;;;;;22.37;34.87;96319.22;3580951;40;20056;-57
2021/06/10 09:11:22;;;;;;;6.15;2.58;;;;;;;21.77;36.38;96329.81;3575029;39;20434;-57
2021/06/10 09:13:56;;;;;;;5.70;2.58;;;;;;;21.85;35.51;96330.09;3582202;39;20047;-55
2021/06/10 09:16:35;;;;;;;6.55;2.83;;;;;;;21.73;36.21;96342.28;3590129;39;20102;-57
2021/06/10 09:19:13;;;;;;;4.20;2.58;;;;;;;21.74;36.46;96332.34;3573248;39;20580;-55
2021/06/10 09:21:47;;;;;;;4.15;2.60;;;;;;;21.86;36.95;96342.41;3577962;39;20052;-54
2021/06/10 09:24:15;;;;;;;3.28;2.70;;;;;;;21.79;36.08;96330.28;3592629;39;20054;-57
2021/06/10 09:26:45;;;;;;;4.32;2.80;;;;;;;21.59;35.16;96352.38;3581836;39;20066;-55
2021/06/10 09:29:13;;;;;;;6.32;3.03;;;;;;;21.69;34.82;96340.56;3577913;39;20048;-55
2021/06/10 09:31:41;;;;;;;4.28;2.60;;;;;;;21.72;35.83;96335.34;3582035;39;20094;-55
2021/06/10 09:34:16;;;;;;;4.35;2.90;;;;;;;21.79;36.52;96332.16;3578496;39;20066;-58
2021/06/10 09:36:47;;;;;;;4.75;3.40;;;;;;;21.83;36.21;96348.44;3592055;39;20086;-56
2021/06/10 09:39:18;;;;;;;2.70;2.50;;;;;;;21.77;37.19;96348.59;3580223;39;20056;-55
2021/06/10 09:42:08;;;;;;;4.05;3.17;;;;;;;21.43;38.53;96349.38;3588713;39;20062;-55
2021/06/10 09:44:54;;;;;;;3.50;3.05;;;;;;;21.50;38.01;96350.47;3586761;39;20081;-55
2021/06/10 09:47:34;;;;;;;10.55;3.25;;;;;;;21.61;37.18;96367.09;3590985;39;20047;-54
2021/06/10 09:50:21;;;;;;;3.67;2.58;;;;;;;21.83;36.29;96356.50;3590210;39;20336;-54
2021/06/10 09:52:58;;;;;;;4.88;3.45;;;;;;;21.91;35.25;96351.09;3591377;39;20048;-54
2021/06/10 09:55:31;;;;;;;3.80;3.08;;;;;;;22.19;35.78;96328.47;3591635;39;20050;-55
2021/06/10 09:58:14;;;;;;;3.42;3.15;;;;;;;22.11;35.76;96309.34;3591052;39;20489;-55
2021/06/10 10:00:45;;;;;;;3.65;3.10;;;;;;;22.29;35.73;96328.13;3578231;39;20753;-55
2021/06/10 10:03:41;;;;;;;4.68;3.20;;;;;;;22.67;35.44;96329.25;3589020;39;20316;-55
2021/06/10 10:06:19;;;;;;;4.00;3.38;;;;;;;23.03;35.20;96325.25;3580107;39;20351;-55
2021/06/10 10:09:05;;;;;;;4.18;3.53;;;;;;;23.56;34.49;96328.38;3589628;39;20050;-59
2021/06/10 10:11:34;;;;;;;3.38;2.53;;;;;;;23.45;30.48;96324.50;3587929;39;20055;-55
2021/06/10 10:14:07;;;;;;;4.95;2.28;;;;;;;23.36;32.81;96315.69;3593452;39;20675;-56
2021/06/10 10:16:37;;;;;;;4.95;2.60;;;;;;;23.38;32.13;96321.56;3583782;40;20050;-56
2021/06/10 10:19:06;;;;;;;5.90;3.22;;;;;;;23.46;33.78;96323.38;3592807;39;20048;-55
2021/06/10 10:21:36;;;;;;;4.28;2.65;;;;;;;23.53;32.11;96334.41;3583654;40;20052;-55
2021/06/10 10:24:08;;;;;;;4.57;2.47;;;;;;;23.48;32.47;96329.22;3594131;40;20052;-56
2021/06/10 10:26:37;;;;;;;3.70;2.22;;;;;;;23.14;32.85;96323.72;3593857;40;20050;-55
2021/06/10 10:29:11;;;;;;;3.05;2.33;;;;;;;22.77;33.06;96328.88;3592915;40;20056;-55
2021/06/10 10:31:41;;;;;;;2.65;2.38;;;;;;;22.57;33.64;96319.66;3593832;40;20324;-55
2021/06/10 10:34:29;;;;;;;3.53;2.17;;;;;;;22.52;33.53;96317.91;3593986;40;20297;-55
2021/06/10 10:36:57;;;;;;;3.05;2.22;;;;;;;22.85;34.54;96309.22;3593985;39;20056;-55
2021/06/10 10:39:35;;;;;;;8.45;2.30;;;;;;;23.19;33.46;96320.09;3593482;39;20070;-55
2021/06/10 10:42:05;;;;;;;4.18;2.75;;;;;;;23.55;33.13;96313.34;3593009;40;20400;-55
2021/06/10 10:44:34;;;;;;;4.72;2.28;;;;;;;23.89;32.15;96314.13;3583018;40;20052;-55
2021/06/10 10:47:09;;;;;;;2.55;2.35;;;;;;;23.51;31.15;96306.25;3584086;40;20056;-55
2021/06/10 10:49:48;;;;;;;3.70;2.50;;;;;;;23.43;31.76;96308.69;3583924;40;20056;-56
2021/06/10 10:52:26;;;;;;;2.47;2.20;;;;;;;23.47;31.85;96306.91;3567579;40;20025;-54
2021/06/10 10:55:09;;;;;;;3.03;2.17;;;;;;;23.52;32.49;96310.50;3574955;40;20044;-55
2021/06/10 10:57:41;;;;;;;3.75;2.17;;;;;;;23.35;32.46;96304.16;3575201;40;20040;-54
2021/06/10 11:00:13;;;;;;;3.65;2.42;;;;;;;23.58;31.68;96299.19;3593326;40;20051;-54
2021/06/10 11:02:49;;;;;;;8.63;2.55;;;;;;;23.92;31.99;96307.28;3579825;40;20052;-54
2021/06/10 11:05:29;;;;;;;4.22;3.08;;;;;;;23.61;31.63;96306.63;3593225;40;20056;-55
2021/06/10 11:07:57;;;;;;;3.47;2.10;;;;;;;23.47;33.31;96300.72;3593057;39;20056;-56
2021/06/10 11:10:39;;;;;;;3.05;2.75;;;;;;;23.02;33.49;96304.81;3592405;39;20065;-55
2021/06/10 11:13:24;;;;;;;2.95;2.30;;;;;;;23.04;33.89;96303.41;3574879;40;20828;-56
2021/06/10 11:15:57;;;;;;;3.15;2.03;;;;;;;23.09;32.60;96301.63;3583729;40;20146;-55
2021/06/10 11:18:48;;;;;;;2.65;2.25;;;;;;;23.07;32.60;96310.03;3593588;40;20354;-55
2021/06/10 11:21:40;;;;;;;2.40;2.20;;;;;;;23.18;34.14;96297.75;3583686;40;20125;-55
2021/06/10 11:24:15;;;;;;;2.38;1.90;;;;;;;23.26;32.26;96292.69;3582834;39;20056;-56
2021/06/10 11:26:53;;;;;;;2.28;2.08;;;;;;;23.58;31.35;96288.41;3582918;39;20054;-55
2021/06/10 11:29:20;;;;;;;2.83;2.00;;;;;;;23.78;30.28;96277.94;3591647;39;20422;-56
2021/06/10 11:32:26;;;;;;;2.17;2.00;;;;;;;23.75;30.78;96282.09;3592012;39;20056;-55
2021/06/10 11:34:56;;;;;;;4.15;2.08;;;;;;;23.66;31.81;96273.31;3592708;39;20394;-55
2021/06/10 11:37:27;;;;;;;4.53;1.85;;;;;;;23.63;31.43;96274.75;3592806;39;20044;-54
2021/06/10 11:39:56;;;;;;;4.32;1.52;;;;;;;23.77;32.26;96273.69;3587528;39;20060;-56
2021/06/10 11:42:24;;;;;;;3.13;1.88;;;;;;;23.66;30.48;96270.59;3582804;39;20261;-56